createdAt,value
2018-12-24T00:00:02.824Z,11.5
2018-12-24T00:00:07.124Z,11.5
2018-12-24T00:00:11.412Z,11.5
2018-12-24T00:00:15.698Z,11.49
2018-12-24T00:00:19.992Z,11.5
2018-12-24T00:00:24.278Z,11.5
2018-12-24T00:00:28.475Z,11.48
2018-12-24T00:00:32.765Z,11.49
2018-12-24T00:00:37.071Z,11.5
2018-12-24T00:00:41.355Z,11.5
2018-12-24T00:00:45.643Z,11.49
2018-12-24T00:00:50.039Z,11.48
2018-12-24T00:00:54.323Z,11.48
2018-12-24T00:00:58.618Z,11.48
2018-12-24T00:01:02.968Z,11.48
2018-12-24T00:01:07.269Z,11.48
2018-12-24T00:01:11.559Z,11.47
2018-12-24T00:01:15.853Z,11.47
2018-12-24T00:01:20.151Z,11.48
2018-12-24T00:01:24.446Z,11.46
2018-12-24T00:01:28.862Z,11.47
2018-12-24T00:01:33.152Z,11.46
2018-12-24T00:01:37.445Z,11.46
2018-12-24T00:01:41.735Z,11.46
2018-12-24T00:01:46.028Z,11.47
2018-12-24T00:01:50.313Z,11.46
2018-12-24T00:01:54.598Z,11.44
2018-12-24T00:01:58.887Z,11.44
2018-12-24T00:02:03.176Z,11.44
2018-12-24T00:02:07.459Z,11.45
2018-12-24T00:02:11.742Z,11.44
2018-12-24T00:02:16.027Z,11.43
2018-12-24T00:02:20.324Z,11.42
2018-12-24T00:02:24.611Z,11.43
2018-12-24T00:02:28.905Z,11.43
2018-12-24T00:02:33.198Z,11.41
2018-12-24T00:02:37.483Z,11.41
2018-12-24T00:02:41.770Z,11.41
2018-12-24T00:02:46.060Z,11.4
2018-12-24T00:02:50.346Z,11.4
2018-12-24T00:02:54.638Z,11.4
2018-12-24T00:02:58.930Z,11.39
2018-12-24T00:03:03.369Z,11.4
2018-12-24T00:03:07.667Z,11.39
2018-12-24T00:03:11.956Z,11.39
2018-12-24T00:03:16.151Z,11.4
2018-12-24T00:03:20.445Z,11.39
2018-12-24T00:03:24.730Z,11.39
2018-12-24T00:03:29.093Z,11.38
2018-12-24T00:03:33.402Z,11.38
2018-12-24T00:03:37.589Z,11.37
2018-12-24T00:03:41.874Z,11.37
2018-12-24T00:03:46.065Z,11.38
2018-12-24T00:03:50.250Z,11.38
2018-12-24T00:03:54.539Z,11.37
2018-12-24T00:03:58.834Z,11.36
2018-12-24T00:04:03.124Z,11.36
2018-12-24T00:04:07.465Z,11.36
2018-12-24T00:04:11.750Z,11.36
2018-12-24T00:04:16.097Z,11.35
2018-12-24T00:04:20.292Z,11.35
2018-12-24T00:04:24.583Z,11.36
2018-12-24T00:04:28.905Z,11.35
2018-12-24T00:04:33.247Z,11.35
2018-12-24T00:04:37.541Z,11.35
2018-12-24T00:04:41.940Z,11.35
2018-12-24T00:04:46.236Z,11.35
2018-12-24T00:04:50.525Z,11.35
2018-12-24T00:04:54.919Z,11.34
2018-12-24T00:04:59.214Z,11.33
2018-12-24T00:05:03.606Z,11.33
2018-12-24T00:05:07.900Z,11.33
2018-12-24T00:05:12.184Z,11.33
2018-12-24T00:05:16.371Z,11.31
2018-12-24T00:05:20.659Z,11.31
2018-12-24T00:05:24.950Z,11.31
2018-12-24T00:05:29.240Z,11.31
2018-12-24T00:05:33.543Z,11.31
2018-12-24T00:05:37.731Z,11.3
2018-12-24T00:05:42.019Z,11.3
2018-12-24T00:05:46.356Z,11.28
2018-12-24T00:05:50.646Z,11.29
2018-12-24T00:05:54.936Z,11.28
2018-12-24T00:05:59.221Z,11.28
2018-12-24T00:06:03.514Z,11.28
2018-12-24T00:06:07.705Z,11.28
2018-12-24T00:06:11.917Z,11.27
2018-12-24T00:06:16.208Z,11.28
2018-12-24T00:06:20.496Z,11.28
2018-12-24T00:06:24.695Z,11.27
2018-12-24T00:06:28.986Z,11.27
2018-12-24T00:06:33.382Z,11.28
2018-12-24T00:06:37.675Z,11.26
2018-12-24T00:06:41.964Z,11.28
2018-12-24T00:06:46.253Z,11.27
2018-12-24T00:06:50.545Z,11.27
2018-12-24T00:06:54.742Z,11.26
2018-12-24T00:06:58.935Z,11.27
2018-12-24T00:07:03.219Z,11.28
2018-12-24T00:07:07.506Z,11.27
2018-12-24T00:07:11.796Z,11.26
2018-12-24T00:07:16.091Z,11.27
2018-12-24T00:07:20.381Z,11.25
2018-12-24T00:07:24.678Z,11.25
2018-12-24T00:07:29.002Z,11.26
2018-12-24T00:07:33.291Z,11.24
2018-12-24T00:07:37.580Z,11.26
2018-12-24T00:07:41.869Z,11.25
2018-12-24T00:07:46.170Z,11.25
2018-12-24T00:07:50.569Z,11.25
2018-12-24T00:07:54.767Z,11.24
2018-12-24T00:07:58.869Z,11.23
2018-12-24T00:08:03.160Z,11.23
2018-12-24T00:08:07.467Z,11.23
2018-12-24T00:08:11.758Z,11.23
2018-12-24T00:08:15.947Z,11.23
2018-12-24T00:08:20.238Z,11.23
2018-12-24T00:08:24.429Z,11.22
2018-12-24T00:08:28.719Z,11.22
2018-12-24T00:08:33.003Z,11.21
2018-12-24T00:08:37.266Z,11.22
2018-12-24T00:08:41.553Z,11.21
2018-12-24T00:08:45.948Z,11.2
2018-12-24T00:08:50.239Z,11.2
2018-12-24T00:08:54.527Z,11.2
2018-12-24T00:08:58.811Z,11.19
2018-12-24T00:09:03.248Z,11.2
2018-12-24T00:09:07.532Z,11.19
2018-12-24T00:09:11.870Z,11.19
2018-12-24T00:09:16.065Z,11.17
2018-12-24T00:09:20.357Z,11.19
2018-12-24T00:09:24.560Z,11.18
2018-12-24T00:09:28.845Z,11.18
2018-12-24T00:09:33.136Z,11.17
2018-12-24T00:09:37.326Z,11.17
2018-12-24T00:09:41.613Z,11.17
2018-12-24T00:09:45.825Z,11.17
2018-12-24T00:09:50.020Z,11.18
2018-12-24T00:09:54.310Z,11.18
2018-12-24T00:09:58.598Z,11.17
2018-12-24T00:10:02.911Z,11.16
2018-12-24T00:10:07.210Z,11.16
2018-12-24T00:10:11.498Z,11.16
2018-12-24T00:10:15.791Z,11.14
2018-12-24T00:10:20.077Z,11.13
2018-12-24T00:10:24.363Z,11.14
2018-12-24T00:10:28.654Z,11.13
2018-12-24T00:10:32.942Z,11.13
2018-12-24T00:10:37.228Z,11.13
2018-12-24T00:10:41.516Z,11.13
2018-12-24T00:10:45.803Z,11.13
2018-12-24T00:10:50.088Z,11.13
2018-12-24T00:10:54.379Z,11.12
2018-12-24T00:10:58.569Z,11.12
2018-12-24T00:11:02.882Z,11.12
2018-12-24T00:11:07.173Z,11.12
2018-12-24T00:11:11.362Z,11.12
2018-12-24T00:11:15.673Z,11.11
2018-12-24T00:11:19.957Z,11.11
2018-12-24T00:11:24.242Z,11.12
2018-12-24T00:11:28.536Z,11.09
2018-12-24T00:11:32.826Z,11.1
2018-12-24T00:11:37.115Z,11.09
2018-12-24T00:11:41.410Z,11.09
2018-12-24T00:11:45.696Z,11.08
2018-12-24T00:11:49.989Z,11.08
2018-12-24T00:11:54.287Z,11.09
2018-12-24T00:12:06.748Z,11.08
2018-12-24T00:12:11.285Z,11.07
2018-12-24T00:12:15.479Z,11.06
2018-12-24T00:12:19.771Z,11.05
2018-12-24T00:12:23.968Z,11.06
2018-12-24T00:12:28.264Z,11.06
2018-12-24T00:12:32.557Z,11.05
2018-12-24T00:12:36.859Z,11.06
2018-12-24T00:12:41.160Z,11.05
2018-12-24T00:12:45.448Z,11.05
2018-12-24T00:12:49.733Z,11.05
2018-12-24T00:12:54.111Z,11.06
2018-12-24T00:12:58.405Z,11.04
2018-12-24T00:13:02.700Z,11.05
2018-12-24T00:13:06.894Z,11.05
2018-12-24T00:13:11.182Z,11.04
2018-12-24T00:13:15.473Z,11.05
2018-12-24T00:13:19.687Z,11.04
2018-12-24T00:13:23.891Z,11.05
2018-12-24T00:13:28.190Z,11.05
2018-12-24T00:13:32.492Z,11.05
2018-12-24T00:13:36.680Z,11.04
2018-12-24T00:13:40.971Z,11.04
2018-12-24T00:13:45.258Z,11.02
2018-12-24T00:13:49.453Z,11.03
2018-12-24T00:13:53.737Z,11.03
2018-12-24T00:13:58.027Z,11.02
2018-12-24T00:14:02.326Z,11.02
2018-12-24T00:14:06.615Z,11.01
2018-12-24T00:14:10.907Z,11.02
2018-12-24T00:14:15.205Z,11.02
2018-12-24T00:14:19.493Z,11.02
2018-12-24T00:14:23.894Z,11.02
2018-12-24T00:14:28.206Z,11.03
2018-12-24T00:14:32.494Z,11.02
2018-12-24T00:14:36.782Z,11.03
2018-12-24T00:14:41.072Z,11.01
2018-12-24T00:14:45.370Z,11.01
2018-12-24T00:14:49.774Z,11.01
2018-12-24T00:14:53.987Z,11.01
2018-12-24T00:14:58.276Z,11.02
2018-12-24T00:15:02.620Z,11.02
2018-12-24T00:15:06.814Z,11.02
2018-12-24T00:15:11.005Z,11.02
2018-12-24T00:15:15.191Z,11.01
2018-12-24T00:15:19.476Z,11.01
2018-12-24T00:15:23.771Z,11.01
2018-12-24T00:15:28.057Z,11.03
2018-12-24T00:15:32.344Z,11.01
2018-12-24T00:15:36.636Z,11.01
2018-12-24T00:15:40.920Z,11.02
2018-12-24T00:15:45.214Z,11.02
2018-12-24T00:15:49.497Z,11.02
2018-12-24T00:15:53.798Z,11.01
2018-12-24T00:15:58.091Z,11.02
2018-12-24T00:16:02.394Z,11.01
2018-12-24T00:16:06.713Z,11.01
2018-12-24T00:16:11.009Z,11.02
2018-12-24T00:16:15.299Z,11.03
2018-12-24T00:16:19.584Z,11.02
2018-12-24T00:16:23.877Z,11.01
2018-12-24T00:16:28.186Z,11.01
2018-12-24T00:16:32.475Z,11
2018-12-24T00:16:36.781Z,11
2018-12-24T00:16:40.973Z,11
2018-12-24T00:16:45.269Z,11
2018-12-24T00:16:49.568Z,11.01
2018-12-24T00:16:53.920Z,10.99
2018-12-24T00:16:58.211Z,11
2018-12-24T00:17:02.561Z,11
2018-12-24T00:17:06.855Z,10.99
2018-12-24T00:17:11.144Z,11
2018-12-24T00:17:15.433Z,10.99
2018-12-24T00:17:19.725Z,11
2018-12-24T00:17:24.023Z,10.99
2018-12-24T00:17:28.321Z,11
2018-12-24T00:17:32.604Z,10.99
2018-12-24T00:17:36.902Z,10.99
2018-12-24T00:17:41.197Z,10.99
2018-12-24T00:17:45.491Z,10.99
2018-12-24T00:17:49.778Z,10.98
2018-12-24T00:17:54.067Z,10.98
2018-12-24T00:17:58.368Z,10.99
2018-12-24T00:18:02.656Z,10.99
2018-12-24T00:18:06.946Z,10.98
2018-12-24T00:18:11.229Z,10.98
2018-12-24T00:18:15.517Z,10.97
2018-12-24T00:18:19.718Z,10.97
2018-12-24T00:18:24.008Z,10.98
2018-12-24T00:18:28.409Z,10.98
2018-12-24T00:18:32.701Z,10.98
2018-12-24T00:18:37.005Z,10.99
2018-12-24T00:18:41.314Z,10.98
2018-12-24T00:18:45.521Z,10.99
2018-12-24T00:18:49.805Z,10.98
2018-12-24T00:18:54.098Z,10.99
2018-12-24T00:18:58.408Z,10.98
2018-12-24T00:19:02.692Z,10.98
2018-12-24T00:19:06.981Z,10.98
2018-12-24T00:19:11.169Z,10.97
2018-12-24T00:19:15.455Z,10.98
2018-12-24T00:19:19.750Z,10.99
2018-12-24T00:19:24.040Z,10.97
2018-12-24T00:19:28.328Z,10.97
2018-12-24T00:19:32.620Z,10.97
2018-12-24T00:19:38.962Z,10.97
2018-12-24T00:19:43.251Z,10.97
2018-12-24T00:19:47.550Z,10.96
2018-12-24T00:19:51.855Z,10.97
2018-12-24T00:19:56.158Z,10.96
2018-12-24T00:20:00.455Z,10.97
2018-12-24T00:20:04.750Z,10.97
2018-12-24T00:20:09.044Z,10.99
2018-12-24T00:20:13.235Z,10.98
2018-12-24T00:20:17.522Z,10.98
2018-12-24T00:20:21.814Z,10.97
2018-12-24T00:20:26.103Z,10.98
2018-12-24T00:20:30.399Z,10.99
2018-12-24T00:20:34.689Z,10.99
2018-12-24T00:20:39.086Z,10.98
2018-12-24T00:20:43.284Z,10.98
2018-12-24T00:20:47.577Z,10.98
2018-12-24T00:20:51.868Z,10.98
2018-12-24T00:20:56.154Z,10.97
2018-12-24T00:21:00.445Z,10.98
2018-12-24T00:21:04.842Z,10.98
2018-12-24T00:21:09.141Z,10.97
2018-12-24T00:21:13.431Z,10.98
2018-12-24T00:21:17.719Z,10.97
2018-12-24T00:21:22.007Z,10.97
2018-12-24T00:21:26.294Z,10.98
2018-12-24T00:21:30.590Z,10.98
2018-12-24T00:21:34.878Z,10.98
2018-12-24T00:21:39.166Z,10.97
2018-12-24T00:21:43.358Z,10.98
2018-12-24T00:21:47.643Z,10.98
2018-12-24T00:21:51.833Z,10.97
2018-12-24T00:21:56.126Z,10.98
2018-12-24T00:22:00.487Z,10.99
2018-12-24T00:22:04.684Z,10.98
2018-12-24T00:22:08.982Z,10.97
2018-12-24T00:22:13.283Z,10.98
2018-12-24T00:22:17.572Z,10.98
2018-12-24T00:22:21.965Z,10.99
2018-12-24T00:22:26.156Z,10.98
2018-12-24T00:22:30.350Z,10.98
2018-12-24T00:22:34.546Z,10.96
2018-12-24T00:22:38.861Z,10.96
2018-12-24T00:22:43.052Z,10.96
2018-12-24T00:22:47.338Z,10.96
2018-12-24T00:22:51.621Z,10.97
2018-12-24T00:22:55.909Z,10.97
2018-12-24T00:23:00.200Z,10.97
2018-12-24T00:23:04.589Z,10.98
2018-12-24T00:23:08.876Z,10.97
2018-12-24T00:23:13.179Z,10.97
2018-12-24T00:23:17.465Z,10.97
2018-12-24T00:23:21.748Z,10.97
2018-12-24T00:23:26.039Z,10.98
2018-12-24T00:23:30.356Z,10.97
2018-12-24T00:23:34.642Z,10.96
2018-12-24T00:23:38.927Z,10.97
2018-12-24T00:23:43.219Z,10.97
2018-12-24T00:23:47.509Z,10.96
2018-12-24T00:23:51.802Z,10.97
2018-12-24T00:23:56.093Z,10.96
2018-12-24T00:24:00.382Z,10.95
2018-12-24T00:24:04.669Z,10.96
2018-12-24T00:24:08.981Z,10.95
2018-12-24T00:24:13.270Z,10.95
2018-12-24T00:24:17.564Z,10.95
2018-12-24T00:24:21.856Z,10.95
2018-12-24T00:24:26.147Z,10.95
2018-12-24T00:24:30.437Z,10.94
2018-12-24T00:24:34.724Z,10.94
2018-12-24T00:24:39.016Z,10.94
2018-12-24T00:24:43.306Z,10.95
2018-12-24T00:24:47.607Z,10.94
2018-12-24T00:24:51.795Z,10.94
2018-12-24T00:24:56.083Z,10.94
2018-12-24T00:25:00.381Z,10.94
2018-12-24T00:25:04.749Z,10.93
2018-12-24T00:25:09.038Z,10.93
2018-12-24T00:25:13.328Z,10.93
2018-12-24T00:25:17.617Z,10.93
2018-12-24T00:25:21.907Z,10.93
2018-12-24T00:25:26.191Z,10.93
2018-12-24T00:25:30.480Z,10.91
2018-12-24T00:25:34.770Z,10.92
2018-12-24T00:25:39.056Z,10.92
2018-12-24T00:25:43.345Z,10.92
2018-12-24T00:25:47.541Z,10.92
2018-12-24T00:25:51.840Z,10.92
2018-12-24T00:25:56.127Z,10.92
2018-12-24T00:26:00.473Z,10.92
2018-12-24T00:26:04.920Z,10.92
2018-12-24T00:26:09.212Z,10.92
2018-12-24T00:26:13.507Z,10.91
2018-12-24T00:26:17.793Z,10.91
2018-12-24T00:26:22.083Z,10.92
2018-12-24T00:26:26.384Z,10.92
2018-12-24T00:26:30.673Z,10.93
2018-12-24T00:26:34.964Z,10.93
2018-12-24T00:26:39.361Z,10.92
2018-12-24T00:26:43.648Z,10.91
2018-12-24T00:26:47.964Z,10.93
2018-12-24T00:26:52.250Z,10.92
2018-12-24T00:26:56.437Z,10.92
2018-12-24T00:27:00.728Z,10.92
2018-12-24T00:27:05.037Z,10.91
2018-12-24T00:27:09.322Z,10.92
2018-12-24T00:27:13.608Z,10.91
2018-12-24T00:27:17.906Z,10.92
2018-12-24T00:27:22.199Z,10.93
2018-12-24T00:27:26.492Z,10.91
2018-12-24T00:27:30.783Z,10.92
2018-12-24T00:27:35.148Z,10.92
2018-12-24T00:27:39.444Z,10.93
2018-12-24T00:27:43.802Z,10.92
2018-12-24T00:27:48.093Z,10.93
2018-12-24T00:27:52.396Z,10.93
2018-12-24T00:27:56.683Z,10.93
2018-12-24T00:28:00.773Z,10.93
2018-12-24T00:28:05.067Z,10.92
2018-12-24T00:28:09.350Z,10.92
2018-12-24T00:28:13.641Z,10.93
2018-12-24T00:28:17.839Z,10.92
2018-12-24T00:28:22.125Z,10.9
2018-12-24T00:28:26.411Z,10.91
2018-12-24T00:28:30.699Z,10.91
2018-12-24T00:28:34.990Z,10.91
2018-12-24T00:28:39.279Z,10.91
2018-12-24T00:28:43.375Z,10.92
2018-12-24T00:28:47.669Z,10.91
2018-12-24T00:28:51.970Z,10.91
2018-12-24T00:28:56.267Z,10.92
2018-12-24T00:29:00.553Z,10.92
2018-12-24T00:29:04.840Z,10.92
2018-12-24T00:29:09.123Z,10.92
2018-12-24T00:29:13.408Z,10.92
2018-12-24T00:29:17.696Z,10.92
2018-12-24T00:29:21.989Z,10.93
2018-12-24T00:29:26.278Z,10.93
2018-12-24T00:29:30.579Z,10.93
2018-12-24T00:29:34.865Z,10.93
2018-12-24T00:29:39.152Z,10.93
2018-12-24T00:29:43.442Z,10.93
2018-12-24T00:29:47.633Z,10.94
2018-12-24T00:29:51.921Z,10.95
2018-12-24T00:29:56.211Z,10.93
2018-12-24T00:30:00.504Z,10.94
2018-12-24T00:30:05.005Z,10.94
2018-12-24T00:30:09.298Z,10.92
2018-12-24T00:30:13.486Z,10.93
2018-12-24T00:30:17.877Z,10.93
2018-12-24T00:30:22.176Z,10.93
2018-12-24T00:30:26.414Z,10.93
2018-12-24T00:30:30.707Z,10.94
2018-12-24T00:30:34.991Z,10.94
2018-12-24T00:30:39.283Z,10.94
2018-12-24T00:30:43.575Z,10.93
2018-12-24T00:30:47.859Z,10.93
2018-12-24T00:30:52.254Z,10.94
2018-12-24T00:30:56.541Z,10.94
2018-12-24T00:31:00.832Z,10.95
2018-12-24T00:31:05.022Z,10.95
2018-12-24T00:31:09.310Z,10.94
2018-12-24T00:31:13.597Z,10.93
2018-12-24T00:31:17.964Z,10.94
2018-12-24T00:31:22.250Z,10.94
2018-12-24T00:31:26.628Z,10.94
2018-12-24T00:31:30.917Z,10.94
2018-12-24T00:31:35.216Z,10.93
2018-12-24T00:31:39.515Z,10.93
2018-12-24T00:31:43.705Z,10.94
2018-12-24T00:31:47.996Z,10.93
2018-12-24T00:31:52.284Z,10.93
2018-12-24T00:31:56.574Z,10.94
2018-12-24T00:32:00.883Z,10.94
2018-12-24T00:32:05.169Z,10.94
2018-12-24T00:32:09.457Z,10.95
2018-12-24T00:32:13.740Z,10.93
2018-12-24T00:32:18.028Z,10.93
2018-12-24T00:32:22.325Z,10.94
2018-12-24T00:32:26.619Z,10.94
2018-12-24T00:32:31.009Z,10.94
2018-12-24T00:32:35.299Z,10.94
2018-12-24T00:32:39.587Z,10.95
2018-12-24T00:32:43.886Z,10.95
2018-12-24T00:32:48.170Z,10.95
2018-12-24T00:32:52.456Z,10.96
2018-12-24T00:32:56.744Z,10.96
2018-12-24T00:33:01.030Z,10.95
2018-12-24T00:33:05.334Z,10.96
2018-12-24T00:33:09.622Z,10.95
2018-12-24T00:33:13.915Z,10.97
2018-12-24T00:33:18.199Z,10.96
2018-12-24T00:33:22.509Z,10.96
2018-12-24T00:33:26.798Z,10.96
2018-12-24T00:33:30.993Z,10.97
2018-12-24T00:33:35.277Z,10.97
2018-12-24T00:33:39.467Z,10.96
2018-12-24T00:33:43.760Z,10.97
2018-12-24T00:33:48.043Z,10.97
2018-12-24T00:33:52.332Z,10.98
2018-12-24T00:33:56.634Z,10.99
2018-12-24T00:34:32.832Z,11.01
2018-12-24T00:34:37.129Z,11.01
2018-12-24T00:34:41.416Z,11
2018-12-24T00:34:45.705Z,11.02
2018-12-24T00:34:50.000Z,11.01
2018-12-24T00:34:54.306Z,11
2018-12-24T00:34:58.602Z,10.99
2018-12-24T00:35:02.901Z,11
2018-12-24T00:35:07.189Z,11
2018-12-24T00:35:11.475Z,11
2018-12-24T00:35:15.766Z,10.99
2018-12-24T00:35:20.055Z,11
2018-12-24T00:35:24.359Z,11
2018-12-24T00:35:28.642Z,10.99
2018-12-24T00:35:32.924Z,11
2018-12-24T00:35:37.219Z,11
2018-12-24T00:35:41.409Z,11
2018-12-24T00:35:45.694Z,10.99
2018-12-24T00:35:49.990Z,11.01
2018-12-24T00:35:54.284Z,11.01
2018-12-24T00:35:58.570Z,11
2018-12-24T00:36:02.959Z,11.01
2018-12-24T00:36:07.262Z,11
2018-12-24T00:36:11.630Z,11
2018-12-24T00:36:15.922Z,11.01
2018-12-24T00:36:20.208Z,11
2018-12-24T00:36:24.502Z,11
2018-12-24T00:36:28.790Z,11
2018-12-24T00:36:33.079Z,11.01
2018-12-24T00:36:37.377Z,11.02
2018-12-24T00:36:41.676Z,11.01
2018-12-24T00:36:45.966Z,11.02
2018-12-24T00:36:50.254Z,11.01
2018-12-24T00:36:54.548Z,11.01
2018-12-24T00:36:58.843Z,11.01
2018-12-24T00:37:03.124Z,11
2018-12-24T00:37:07.411Z,11
2018-12-24T00:37:11.606Z,11.01
2018-12-24T00:37:15.899Z,11
2018-12-24T00:37:20.187Z,10.99
2018-12-24T00:37:24.476Z,11.01
2018-12-24T00:37:28.764Z,11.01
2018-12-24T00:37:33.058Z,11
2018-12-24T00:37:37.347Z,11.01
2018-12-24T00:37:41.631Z,11.01
2018-12-24T00:37:45.923Z,11
2018-12-24T00:37:50.215Z,11.01
2018-12-24T00:37:54.502Z,11
2018-12-24T00:37:58.787Z,11.01
2018-12-24T00:38:03.155Z,11
2018-12-24T00:38:07.442Z,11
2018-12-24T00:38:11.826Z,11
2018-12-24T00:38:16.115Z,11.01
2018-12-24T00:38:20.318Z,11
2018-12-24T00:38:24.512Z,10.99
2018-12-24T00:38:28.795Z,11
2018-12-24T00:38:33.086Z,11
2018-12-24T00:38:37.373Z,10.98
2018-12-24T00:38:41.665Z,11
2018-12-24T00:38:45.957Z,11
2018-12-24T00:38:50.152Z,11.01
2018-12-24T00:38:54.438Z,11.01
2018-12-24T00:38:58.731Z,11.02
2018-12-24T00:39:03.017Z,11.01
2018-12-24T00:39:07.301Z,11.01
2018-12-24T00:39:11.588Z,11.01
2018-12-24T00:39:15.873Z,11.02
2018-12-24T00:39:20.163Z,11.03
2018-12-24T00:39:24.458Z,11.02
2018-12-24T00:39:28.754Z,11.03
2018-12-24T00:39:33.044Z,11.02
2018-12-24T00:39:37.327Z,11.03
2018-12-24T00:39:41.609Z,11.03
2018-12-24T00:39:45.902Z,11.03
2018-12-24T00:39:50.191Z,11.02
2018-12-24T00:39:54.568Z,11.03
2018-12-24T00:39:58.876Z,11.02
2018-12-24T00:40:03.202Z,11.03
2018-12-24T00:40:07.501Z,11.03
2018-12-24T00:40:11.788Z,11.04
2018-12-24T00:40:16.073Z,11.04
2018-12-24T00:40:20.368Z,11.03
2018-12-24T00:40:24.655Z,11.04
2018-12-24T00:40:28.944Z,11.03
2018-12-24T00:40:33.241Z,11.03
2018-12-24T00:40:37.435Z,11.04
2018-12-24T00:40:41.719Z,11.05
2018-12-24T00:40:46.012Z,11.04
2018-12-24T00:40:50.309Z,11.03
2018-12-24T00:40:54.690Z,11.05
2018-12-24T00:40:58.978Z,11.04
2018-12-24T00:41:03.266Z,11.04
2018-12-24T00:41:07.556Z,11.03
2018-12-24T00:41:11.855Z,11.04
2018-12-24T00:41:16.156Z,11.04
2018-12-24T00:41:20.492Z,11.04
2018-12-24T00:41:24.782Z,11.04
2018-12-24T00:41:29.069Z,11.04
2018-12-24T00:41:33.261Z,11.03
2018-12-24T00:41:37.555Z,11.04
2018-12-24T00:41:41.851Z,11.04
2018-12-24T00:41:46.140Z,11.04
2018-12-24T00:41:50.439Z,11.04
2018-12-24T00:41:54.726Z,11.05
2018-12-24T00:41:59.009Z,11.04
2018-12-24T00:42:03.348Z,11.04
2018-12-24T00:42:16.488Z,11.05
2018-12-24T00:42:20.783Z,11.04
2018-12-24T00:42:24.984Z,11.05
2018-12-24T00:42:31.165Z,11.05
2018-12-24T00:42:35.457Z,11.04
2018-12-24T00:42:39.748Z,11.05
2018-12-24T00:42:44.039Z,11.06
2018-12-24T00:42:48.377Z,11.04
2018-12-24T00:42:52.691Z,11.05
2018-12-24T00:42:56.989Z,11.06
2018-12-24T00:43:01.284Z,11.06
2018-12-24T00:43:05.571Z,11.05
2018-12-24T00:43:09.771Z,11.05
2018-12-24T00:43:14.067Z,11.05
2018-12-24T00:43:18.258Z,11.06
2018-12-24T00:43:22.447Z,11.05
2018-12-24T00:43:26.735Z,11.06
2018-12-24T00:43:31.024Z,11.05
2018-12-24T00:43:35.320Z,11.06
2018-12-24T00:43:39.616Z,11.06
2018-12-24T00:43:43.901Z,11.05
2018-12-24T00:43:48.186Z,11.07
2018-12-24T00:43:52.579Z,11.07
2018-12-24T00:43:56.870Z,11.08
2018-12-24T00:44:01.157Z,11.06
2018-12-24T00:44:05.460Z,11.07
2018-12-24T00:44:09.755Z,11.07
2018-12-24T00:44:14.048Z,11.08
2018-12-24T00:44:18.376Z,11.07
2018-12-24T00:44:22.686Z,11.07
2018-12-24T00:44:26.777Z,11.07
2018-12-24T00:44:31.071Z,11.07
2018-12-24T00:44:35.363Z,11.08
2018-12-24T00:44:39.656Z,11.08
2018-12-24T00:44:43.946Z,11.08
2018-12-24T00:44:48.251Z,11.08
2018-12-24T00:44:52.542Z,11.09
2018-12-24T00:44:56.834Z,11.09
2018-12-24T00:45:01.034Z,11.09
2018-12-24T00:45:05.328Z,11.1
2018-12-24T00:45:09.619Z,11.1
2018-12-24T00:45:13.910Z,11.1
2018-12-24T00:45:18.199Z,11.1
2018-12-24T00:45:22.495Z,11.1
2018-12-24T00:45:26.780Z,11.11
2018-12-24T00:45:31.082Z,11.12
2018-12-24T00:45:35.278Z,11.12
2018-12-24T00:45:39.564Z,11.13
2018-12-24T00:45:43.860Z,11.13
2018-12-24T00:45:48.244Z,11.13
2018-12-24T00:45:52.449Z,11.14
2018-12-24T00:45:56.768Z,11.14
2018-12-24T00:46:01.069Z,11.14
2018-12-24T00:46:05.366Z,11.15
2018-12-24T00:46:09.653Z,11.14
2018-12-24T00:46:13.847Z,11.14
2018-12-24T00:46:18.141Z,11.14
2018-12-24T00:46:22.450Z,11.14
2018-12-24T00:46:26.740Z,11.14
2018-12-24T00:46:30.927Z,11.16
2018-12-24T00:46:35.240Z,11.17
2018-12-24T00:46:39.526Z,11.15
2018-12-24T00:46:43.818Z,11.16
2018-12-24T00:46:48.104Z,11.17
2018-12-24T00:46:52.407Z,11.16
2018-12-24T00:46:56.698Z,11.17
2018-12-24T00:47:00.989Z,11.17
2018-12-24T00:47:05.274Z,11.17
2018-12-24T00:47:09.568Z,11.17
2018-12-24T00:47:13.857Z,11.18
2018-12-24T00:47:18.146Z,11.17
2018-12-24T00:47:22.432Z,11.18
2018-12-24T00:47:26.720Z,11.19
2018-12-24T00:47:31.016Z,11.2
2018-12-24T00:47:35.211Z,11.18
2018-12-24T00:47:39.588Z,11.2
2018-12-24T00:47:43.787Z,11.2
2018-12-24T00:47:48.081Z,11.21
2018-12-24T00:47:52.277Z,11.21
2018-12-24T00:47:56.371Z,11.22
2018-12-24T00:48:00.564Z,11.21
2018-12-24T00:48:04.864Z,11.22
2018-12-24T00:48:11.127Z,11.22
2018-12-24T00:48:15.425Z,11.22
2018-12-24T00:48:19.720Z,11.23
2018-12-24T00:48:24.013Z,11.22
2018-12-24T00:48:28.304Z,11.23
2018-12-24T00:48:32.614Z,11.24
2018-12-24T00:48:36.901Z,11.24
2018-12-24T00:48:41.194Z,11.24
2018-12-24T00:48:45.508Z,11.24
2018-12-24T00:48:49.809Z,11.24
2018-12-24T00:48:54.105Z,11.25
2018-12-24T00:48:58.309Z,11.25
2018-12-24T00:49:02.598Z,11.25
2018-12-24T00:49:06.887Z,11.25
2018-12-24T00:49:11.177Z,11.25
2018-12-24T00:49:15.474Z,11.25
2018-12-24T00:49:19.757Z,11.24
2018-12-24T00:49:24.054Z,11.25
2018-12-24T00:49:28.345Z,11.25
2018-12-24T00:49:32.646Z,11.25
2018-12-24T00:49:36.936Z,11.25
2018-12-24T00:49:41.231Z,11.25
2018-12-24T00:49:45.522Z,11.24
2018-12-24T00:49:49.815Z,11.25
2018-12-24T00:49:54.107Z,11.25
2018-12-24T00:49:58.400Z,11.26
2018-12-24T00:50:02.692Z,11.26
2018-12-24T00:50:06.984Z,11.25
2018-12-24T00:50:11.280Z,11.25
2018-12-24T00:50:15.570Z,11.26
2018-12-24T00:50:19.766Z,11.25
2018-12-24T00:50:24.054Z,11.25
2018-12-24T00:50:28.359Z,11.25
2018-12-24T00:50:32.651Z,11.25
2018-12-24T00:50:36.844Z,11.25
2018-12-24T00:50:41.139Z,11.26
2018-12-24T00:50:45.430Z,11.26
2018-12-24T00:50:49.720Z,11.25
2018-12-24T00:50:54.027Z,11.25
2018-12-24T00:50:58.315Z,11.25
2018-12-24T00:51:02.601Z,11.25
2018-12-24T00:51:06.898Z,11.26
2018-12-24T00:51:11.194Z,11.26
2018-12-24T00:51:15.391Z,11.26
2018-12-24T00:51:19.683Z,11.25
2018-12-24T00:51:23.969Z,11.26
2018-12-24T00:51:28.257Z,11.26
2018-12-24T00:51:32.542Z,11.26
2018-12-24T00:51:36.847Z,11.26
2018-12-24T00:51:41.134Z,11.27
2018-12-24T00:51:45.460Z,11.27
2018-12-24T00:51:49.754Z,11.26
2018-12-24T00:51:54.055Z,11.26
2018-12-24T00:51:58.271Z,11.28
2018-12-24T00:52:02.461Z,11.27
2018-12-24T00:52:06.751Z,11.26
2018-12-24T00:52:11.040Z,11.26
2018-12-24T00:52:15.330Z,11.25
2018-12-24T00:52:19.627Z,11.26
2018-12-24T00:52:23.924Z,11.25
2018-12-24T00:52:28.213Z,11.27
2018-12-24T00:52:32.501Z,11.26
2018-12-24T00:52:36.788Z,11.27
2018-12-24T00:52:41.080Z,11.27
2018-12-24T00:52:45.386Z,11.27
2018-12-24T00:52:49.669Z,11.28
2018-12-24T00:52:53.870Z,11.28
2018-12-24T00:52:58.158Z,11.28
2018-12-24T00:53:02.462Z,11.28
2018-12-24T00:53:06.466Z,11.3
2018-12-24T00:53:10.760Z,11.3
2018-12-24T00:53:15.045Z,11.31
2018-12-24T00:53:19.356Z,11.3
2018-12-24T00:53:23.644Z,11.32
2018-12-24T00:53:27.930Z,11.33
2018-12-24T00:53:32.230Z,11.33
2018-12-24T00:53:36.525Z,11.33
2018-12-24T00:53:40.812Z,11.33
2018-12-24T00:53:45.103Z,11.33
2018-12-24T00:53:49.289Z,11.34
2018-12-24T00:53:53.591Z,11.34
2018-12-24T00:53:57.880Z,11.35
2018-12-24T00:54:02.179Z,11.34
2018-12-24T00:54:06.469Z,11.35
2018-12-24T00:54:10.662Z,11.34
2018-12-24T00:54:14.952Z,11.35
2018-12-24T00:54:19.242Z,11.35
2018-12-24T00:54:23.526Z,11.35
2018-12-24T00:54:27.833Z,11.35
2018-12-24T00:54:32.127Z,11.34
2018-12-24T00:54:36.415Z,11.35
2018-12-24T00:54:40.707Z,11.36
2018-12-24T00:54:44.999Z,11.36
2018-12-24T00:54:49.287Z,11.36
2018-12-24T00:54:53.500Z,11.36
2018-12-24T00:54:57.914Z,11.37
2018-12-24T00:55:02.419Z,11.37
2018-12-24T00:55:06.706Z,11.38
2018-12-24T00:55:10.994Z,11.37
2018-12-24T00:55:15.287Z,11.37
2018-12-24T00:55:19.570Z,11.36
2018-12-24T00:55:23.853Z,11.36
2018-12-24T00:55:28.138Z,11.37
2018-12-24T00:55:32.428Z,11.37
2018-12-24T00:55:36.714Z,11.37
2018-12-24T00:55:41.003Z,11.35
2018-12-24T00:55:45.296Z,11.35
2018-12-24T00:55:49.691Z,11.36
2018-12-24T00:55:54.056Z,11.35
2018-12-24T00:55:58.354Z,11.36
2018-12-24T00:56:02.718Z,11.35
2018-12-24T00:56:07.002Z,11.35
2018-12-24T00:56:11.327Z,11.35
2018-12-24T00:56:15.613Z,11.35
2018-12-24T00:56:22.222Z,11.35
2018-12-24T00:56:26.515Z,11.35
2018-12-24T00:56:30.813Z,11.35